Track Боревич Александр

Time Latitude Longitude Accuracy (66% radius in meters) Altitude (meters) Speed (km/hour) Bearing (degrees) Battery (%) GPS flag
11:42:42 60.371300 29.556427 0 0 0 0 1 delete
11:42:39 60.371349 29.556476 0 0 0 0 1 delete
11:42:33 60.371618 29.556624 0 0 0 0 1 delete
11:42:29 60.371774 29.556356 0 0 0 0 1 delete
11:42:27 60.371871 29.556236 0 0 0 0 1 delete
11:42:23 60.372097 29.556239 0 0 0 0 1 delete
11:42:17 60.372421 29.556370 0 0 0 0 1 delete
11:42:13 60.372602 29.556476 0 0 0 0 1 delete
11:42:07 60.372826 29.556563 0 0 0 0 1 delete
11:42:01 60.373162 29.556821 0 0 0 0 1 delete
11:41:56 60.373415 29.557055 0 0 0 0 1 delete
11:41:54 60.373496 29.557098 0 0 0 0 1 delete
11:41:48 60.373738 29.557145 0 0 0 0 1 delete
11:41:42 60.373900 29.557340 0 0 0 0 1 delete
11:41:39 60.373920 29.557460 0 0 0 0 1 delete
11:41:35 60.373813 29.557727 0 0 0 0 1 delete
11:41:29 60.373660 29.558052 0 0 0 0 1 delete
11:41:23 60.373603 29.558479 0 0 0 0 1 delete
11:41:19 60.373720 29.558668 0 0 0 0 1 delete
11:41:13 60.373914 29.558927 0 0 0 0 1 delete
11:41:07 60.374048 29.559108 0 0 0 0 1 delete
11:41:01 60.374198 29.559269 0 0 0 0 1 delete
11:40:55 60.374378 29.559617 0 0 0 0 1 delete
11:40:49 60.374470 29.560120 0 0 0 0 1 delete
11:40:46 60.374463 29.560402 0 0 0 0 1 delete
11:40:40 60.374596 29.560667 0 0 0 0 1 delete
11:40:34 60.374663 29.561099 0 0 0 0 1 delete
11:40:28 60.374737 29.561545 0 0 0 0 1 delete
11:40:22 60.374853 29.561491 0 0 0 0 1 delete
11:40:16 60.375014 29.561486 0 0 0 0 1 delete
11:40:14 60.375067 29.561555 0 0 0 0 1 delete
11:40:09 60.375098 29.561958 0 0 0 0 1 delete
11:40:03 60.374955 29.562454 0 0 0 0 1 delete
11:39:57 60.374812 29.562822 0 0 0 0 1 delete
11:39:51 60.374710 29.563104 0 0 0 0 1 delete
11:39:45 60.374640 29.563427 0 0 0 0 1 delete
11:39:39 60.374703 29.563700 0 0 0 0 1 delete
11:39:33 60.374798 29.563994 0 0 0 0 1 delete
11:39:31 60.374847 29.564103 0 0 0 0 1 delete
11:39:30 60.374858 29.564150 0 0 0 0 1 delete
11:39:26 60.374755 29.564305 0 0 0 0 1 delete
11:39:22 60.374617 29.564519 0 0 0 0 1 delete
11:39:16 60.374499 29.564796 0 0 0 0 1 delete
11:39:10 60.374456 29.565215 0 0 0 0 1 delete
11:39:04 60.374558 29.565456 0 0 0 0 1 delete
11:38:58 60.374641 29.565587 0 0 0 0 1 delete
11:38:52 60.374783 29.565760 0 0 0 0 1 delete
11:38:46 60.374838 29.566070 0 0 0 0 1 delete
11:38:40 60.374832 29.566242 0 0 0 0 1 delete
11:38:34 60.374889 29.566568 0 0 0 0 1 delete